Terminal Aerodrome Forecast
Issued by NWS Twin Cities, MN

Home | Current Version | Previous Version | Text Only | Print | Product List | Glossary Off
Versions: 1 2 3 4 5 6 7 8 9 10 11 12 13 14 15 16 17 18 19 20 21 22 23 24 25 26 27 28 29

000
FTUS43 KMPX 302051 AAB
TAFMSP
TAF AMD
KMSP 302051Z 3021/3124 19005KT P6SM SCT020 SCT100
     FM310300 19005KT P6SM SCT150
     FM310600 22006KT P6SM FEW150
     FM311400 34008KT P6SM OVC015=

USA.gov is the U.S. government's official web portal to all federal, state and local government web resources and services.